Time;durP1;ratioP1;P1;durP2;ratioP2;P2;SDS_P1;SDS_P2;PMS_P1;PMS_P2;Temp;Humidity;BMP_temperature;BMP_pressure;BME280_temperature;BME280_humidity;BME280_pressure;Samples;Min_cycle;Max_cycle;Signal;HPM_P1;HPM_P2
2022/08/11 00:00:42;;;;;;;4.00;2.20;;;;;;;13.80;65.62;99995.66;5035931;28;20073;-59
2022/08/11 00:03:12;;;;;;;3.85;2.03;;;;;;;13.76;66.42;99995.31;5052225;28;20049;-60
2022/08/11 00:05:50;;;;;;;2.83;2.00;;;;;;;13.75;66.79;99998.22;5053304;28;20128;-59
2022/08/11 00:08:24;;;;;;;3.17;2.28;;;;;;;13.69;66.91;100001.88;5053472;28;20056;-59
2022/08/11 00:10:54;;;;;;;4.10;2.30;;;;;;;13.64;66.79;100008.72;5052959;28;20048;-59
2022/08/11 00:13:21;;;;;;;4.75;2.10;;;;;;;13.64;66.79;100000.72;5045111;28;20049;-60
2022/08/11 00:15:47;;;;;;;2.58;1.90;;;;;;;13.62;66.90;100005.50;5034641;28;20045;-60
2022/08/11 00:18:13;;;;;;;2.00;1.80;;;;;;;13.59;66.63;100003.31;5072681;28;20056;-58
2022/08/11 00:20:41;;;;;;;3.45;2.40;;;;;;;13.58;68.21;100011.53;5072848;28;20038;-59
2022/08/11 00:23:15;;;;;;;6.03;2.15;;;;;;;13.54;67.80;100010.41;5055196;28;20051;-59
2022/08/11 00:25:46;;;;;;;4.15;1.90;;;;;;;13.56;67.57;100006.47;5054455;28;20051;-59
2022/08/11 00:28:38;;;;;;;3.70;1.90;;;;;;;13.61;66.97;100006.53;5073243;28;20116;-58
2022/08/11 00:31:07;;;;;;;3.17;2.15;;;;;;;13.61;67.46;100009.19;5069059;28;20044;-59
2022/08/11 00:33:42;;;;;;;4.53;2.22;;;;;;;13.60;67.87;100012.91;5072956;28;20459;-59
2022/08/11 00:36:11;;;;;;;3.53;2.20;;;;;;;13.56;68.15;100014.47;5073019;28;20040;-59
2022/08/11 00:38:39;;;;;;;3.33;2.30;;;;;;;13.55;67.98;100017.34;5070776;28;20489;-59
2022/08/11 00:41:17;;;;;;;2.97;2.47;;;;;;;13.51;68.23;100022.38;5054638;28;20044;-59
2022/08/11 00:44:11;;;;;;;6.65;2.20;;;;;;;13.46;68.81;100018.81;5071473;28;20123;-60
2022/08/11 00:47:03;;;;;;;5.05;2.38;;;;;;;13.43;68.92;100020.09;5070769;28;20488;-60
2022/08/11 00:49:42;;;;;;;4.10;2.38;;;;;;;13.40;68.79;100020.56;5054290;28;20052;-60
2022/08/11 00:52:23;;;;;;;4.15;2.08;;;;;;;13.40;68.50;100023.22;5069463;28;20060;-61
2022/08/11 00:54:59;;;;;;;4.38;1.83;;;;;;;13.40;68.89;100018.72;5072475;28;20040;-60
2022/08/11 00:58:08;;;;;;;3.88;2.30;;;;;;;13.35;69.17;100029.28;5068243;28;20049;-60
2022/08/11 01:00:47;;;;;;;3.80;2.40;;;;;;;13.34;69.05;100026.84;5052583;28;20045;-59
2022/08/11 01:03:27;;;;;;;3.00;2.27;;;;;;;13.35;68.90;100023.13;5051682;28;20052;-61
2022/08/11 01:06:02;;;;;;;5.25;2.40;;;;;;;13.33;69.05;100025.25;5052159;28;20118;-61
2022/08/11 01:08:49;;;;;;;2.53;2.00;;;;;;;13.31;69.00;100028.13;5052197;28;20152;-60
2022/08/11 01:11:18;;;;;;;6.22;2.15;;;;;;;13.29;69.37;100032.88;5033858;28;20052;-61
2022/08/11 01:13:46;;;;;;;3.08;2.00;;;;;;;13.27;69.39;100040.31;5052134;28;20045;-59
2022/08/11 01:16:34;;;;;;;4.65;2.35;;;;;;;13.23;69.87;100043.66;5051747;28;20055;-60
2022/08/11 01:19:38;;;;;;;5.55;2.10;;;;;;;13.20;70.33;100047.59;5069936;28;20066;-59
2022/08/11 01:22:32;;;;;;;4.28;2.20;;;;;;;13.18;70.25;100044.38;5071600;28;20535;-60
2022/08/11 01:25:36;;;;;;;6.20;2.40;;;;;;;13.18;70.40;100047.06;5069467;28;20651;-60
2022/08/11 01:28:13;;;;;;;3.38;2.20;;;;;;;13.17;70.70;100051.53;5072107;28;20056;-61
2022/08/11 01:30:47;;;;;;;4.15;2.20;;;;;;;13.14;70.88;100041.38;5071575;28;20037;-60
2022/08/11 01:33:50;;;;;;;6.72;2.70;;;;;;;13.11;70.67;100043.72;5070536;28;20541;-60
2022/08/11 01:36:31;;;;;;;4.40;2.20;;;;;;;13.09;71.03;100051.16;5070502;28;20524;-60
2022/08/11 01:39:26;;;;;;;2.55;2.28;;;;;;;13.07;70.86;100048.69;5071433;28;20043;-61
2022/08/11 01:45:25;;;;;;;5.35;3.13;;;;;;;13.00;71.33;100056.03;5064089;28;20445;-61
2022/08/11 01:48:32;;;;;;;4.20;2.70;;;;;;;12.95;71.50;100054.06;5051759;28;20414;-61
2022/08/11 01:51:30;;;;;;;4.15;2.80;;;;;;;12.96;71.67;100053.00;5050798;28;20323;-61
2022/08/11 01:54:16;;;;;;;6.25;2.80;;;;;;;12.99;71.59;100057.06;5051257;28;20068;-61
2022/08/11 01:57:13;;;;;;;3.40;2.95;;;;;;;13.06;71.45;100052.41;5032587;28;20099;-62
2022/08/11 02:00:18;;;;;;;4.82;2.67;;;;;;;13.16;71.36;100051.78;5051139;28;20048;-59
2022/08/11 02:02:46;;;;;;;3.22;2.47;;;;;;;13.32;70.96;100050.25;5050860;28;20052;-59
2022/08/11 02:05:24;;;;;;;5.05;2.90;;;;;;;13.50;70.17;100057.22;5047600;28;20058;-59
2022/08/11 02:08:10;;;;;;;3.75;2.60;;;;;;;13.69;69.66;100058.63;5071431;28;20048;-60
2022/08/11 02:13:58;;;;;;;3.40;2.58;;;;;;;14.15;68.00;100067.34;5055325;28;20516;-60
2022/08/11 02:16:36;;;;;;;4.55;2.88;;;;;;;14.43;67.04;100068.25;5071147;28;20048;-60
2022/08/11 02:25:32;;;;;;;4.32;2.70;;;;;;;15.14;63.95;100068.34;5070178;28;20059;-62
2022/08/11 02:28:17;;;;;;;5.03;2.85;;;;;;;15.39;63.34;100065.16;5071378;28;20170;-63
2022/08/11 02:33:50;;;;;;;3.10;2.53;;;;;;;16.02;61.29;100066.22;5069711;28;20059;-60
2022/08/11 02:36:20;;;;;;;4.63;2.83;;;;;;;16.25;60.16;100069.59;5070758;28;20045;-60
2022/08/11 02:38:53;;;;;;;7.63;2.95;;;;;;;16.42;59.81;100064.91;5070905;28;20041;-58
2022/08/11 02:44:39;;;;;;;6.22;3.05;;;;;;;16.93;58.11;100081.22;5069068;28;20068;-59
2022/08/11 02:47:23;;;;;;;4.68;3.25;;;;;;;17.23;57.15;100087.72;5071061;28;20185;-60
2022/08/11 02:50:22;;;;;;;5.63;3.22;;;;;;;17.39;56.48;100084.03;5070589;28;20071;-60
2022/08/11 02:52:58;;;;;;;6.75;4.05;;;;;;;17.57;55.93;100092.63;5052434;28;20482;-60
2022/08/11 02:55:50;;;;;;;9.00;3.78;;;;;;;17.73;55.73;100083.50;5070579;28;20512;-59
2022/08/11 02:58:31;;;;;;;6.07;3.58;;;;;;;17.98;54.71;100090.00;5019748;28;20069;-61
2022/08/11 03:01:22;;;;;;;5.40;3.35;;;;;;;18.02;54.62;100088.38;5064651;28;20040;-60
2022/08/11 03:04:00;;;;;;;4.90;3.30;;;;;;;18.16;54.13;100086.75;5069370;28;20523;-59
2022/08/11 03:06:44;;;;;;;6.05;3.80;;;;;;;18.41;53.46;100091.25;5068860;28;20071;-59
2022/08/11 03:09:38;;;;;;;7.35;3.72;;;;;;;18.50;52.97;100094.19;5070619;28;20036;-60
2022/08/11 03:17:58;;;;;;;7.20;4.00;;;;;;;18.76;52.33;100103.03;5050768;28;20095;-59
2022/08/11 03:20:35;;;;;;;5.85;3.33;;;;;;;18.96;51.96;100100.25;5032753;28;20048;-59
2022/08/11 03:23:07;;;;;;;7.07;3.72;;;;;;;18.99;51.82;100112.34;5032810;28;20053;-60
2022/08/11 03:26:00;;;;;;;6.95;3.80;;;;;;;18.77;52.58;100118.06;5032666;28;20052;-59
2022/08/11 03:28:32;;;;;;;7.22;4.70;;;;;;;18.82;52.69;100110.81;5053975;28;20115;-60
2022/08/11 03:30:57;;;;;;;6.28;3.28;;;;;;;18.69;52.94;100111.34;5053684;28;20075;-60
2022/08/11 03:36:27;;;;;;;8.13;3.38;;;;;;;18.41;54.02;100106.56;5053883;28;20095;-59
2022/08/11 03:38:59;;;;;;;4.65;3.35;;;;;;;18.36;54.49;100112.78;5053693;28;20045;-59
2022/08/11 03:41:45;;;;;;;4.85;3.10;;;;;;;18.54;54.11;100108.72;5053103;28;20072;-60
2022/08/11 03:44:30;;;;;;;5.25;2.90;;;;;;;18.78;53.35;100107.03;5053408;28;20048;-59
2022/08/11 03:47:22;;;;;;;4.90;3.05;;;;;;;18.83;53.21;100117.78;5053667;28;20490;-60
2022/08/11 03:50:29;;;;;;;5.18;3.03;;;;;;;18.96;52.91;100121.75;5052422;28;20494;-61
2022/08/11 03:53:19;;;;;;;4.60;3.28;;;;;;;19.13;52.72;100124.09;5030893;28;20041;-60
2022/08/11 03:56:06;;;;;;;4.68;3.20;;;;;;;19.19;52.92;100117.63;5033581;28;20049;-60
2022/08/11 03:58:50;;;;;;;5.05;2.90;;;;;;;19.57;52.17;100106.38;5032332;28;20080;-60
2022/08/11 04:01:41;;;;;;;3.58;3.00;;;;;;;19.61;51.89;100105.53;5032289;28;20049;-60
2022/08/11 04:04:19;;;;;;;5.63;2.85;;;;;;;19.99;51.54;100105.00;5036849;28;20041;-60
2022/08/11 04:07:13;;;;;;;6.40;3.25;;;;;;;20.45;50.39;100113.47;5055447;28;20417;-60
2022/08/11 04:09:57;;;;;;;6.47;2.70;;;;;;;20.43;50.07;100111.03;5069906;28;20032;-61
2022/08/11 04:12:54;;;;;;;4.97;2.83;;;;;;;20.41;50.18;100115.94;5053552;28;20052;-60
2022/08/11 04:16:02;;;;;;;4.72;3.30;;;;;;;20.49;50.10;100114.50;5022482;28;20041;-60
2022/08/11 04:18:50;;;;;;;4.03;3.08;;;;;;;20.22;50.25;100116.94;5052939;28;20088;-58
2022/08/11 04:21:16;;;;;;;5.50;3.00;;;;;;;20.39;50.60;100122.69;5034843;28;20049;-60
2022/08/11 04:24:08;;;;;;;7.20;3.42;;;;;;;20.60;50.11;100120.63;5030637;28;20457;-59
2022/08/11 04:26:58;;;;;;;4.95;3.17;;;;;;;20.62;50.05;100113.06;5032756;28;20546;-60
2022/08/11 04:29:49;;;;;;;5.10;3.25;;;;;;;20.57;50.10;100121.19;5033265;28;20045;-60
2022/08/11 04:32:46;;;;;;;4.78;3.30;;;;;;;20.50;50.60;100126.06;5050107;28;20076;-62
2022/08/11 04:35:44;;;;;;;3.88;3.10;;;;;;;20.50;50.51;100124.19;5051761;28;20055;-59
2022/08/11 04:38:28;;;;;;;4.68;3.13;;;;;;;20.60;51.19;100121.41;5052232;28;20497;-60
2022/08/11 04:41:26;;;;;;;4.45;3.30;;;;;;;21.07;49.94;100113.59;5034304;28;20060;-59
2022/08/11 04:44:19;;;;;;;6.00;3.80;;;;;;;21.36;49.03;100120.78;5066706;28;20435;-60
2022/08/11 04:47:10;;;;;;;5.38;3.00;;;;;;;21.29;48.69;100121.91;5054854;28;20052;-62
2022/08/11 05:02:18;;;;;;;5.00;2.60;;;;;;;20.43;51.08;100137.19;5065525;28;20084;-61
2022/08/11 05:07:48;;;;;;;4.65;2.50;;;;;;;20.42;51.76;100124.81;5043253;28;20056;-59
2022/08/11 05:10:35;;;;;;;3.83;2.70;;;;;;;20.48;51.79;100125.56;5052392;28;20053;-60
2022/08/11 05:36:08;;;;;;;4.15;2.65;;;;;;;19.97;54.44;100124.13;5049906;28;20060;-60
2022/08/11 05:58:05;;;;;;;3.35;2.00;;;;;;;20.20;54.65;100119.88;5037385;28;20040;-60
2022/08/11 06:00:31;;;;;;;2.55;2.00;;;;;;;20.25;54.03;100122.53;5052767;28;20252;-59
2022/08/11 06:02:59;;;;;;;2.65;2.40;;;;;;;20.32;54.12;100120.31;5050218;28;20044;-59
2022/08/11 06:05:40;;;;;;;5.43;2.10;;;;;;;20.32;53.53;100125.69;5046609;28;20045;-58
2022/08/11 06:08:07;;;;;;;2.30;2.10;;;;;;;20.35;54.27;100121.63;5028782;28;20144;-59
2022/08/11 06:10:43;;;;;;;2.90;2.30;;;;;;;20.33;53.55;100121.94;5013116;28;20144;-60
2022/08/11 06:13:09;;;;;;;2.78;2.13;;;;;;;20.40;53.64;100127.78;5011632;28;20044;-59
2022/08/11 06:15:46;;;;;;;3.92;2.63;;;;;;;20.46;54.43;100123.16;5046859;28;20041;-58
2022/08/11 06:18:13;;;;;;;4.13;2.20;;;;;;;20.47;54.43;100123.94;5046806;28;20052;-58
2022/08/11 06:20:53;;;;;;;2.40;2.20;;;;;;;20.52;54.11;100124.72;5031946;28;20045;-60
2022/08/11 06:23:22;;;;;;;2.92;2.42;;;;;;;20.56;53.20;100128.47;5046365;28;20440;-59
2022/08/11 06:25:51;;;;;;;3.90;1.95;;;;;;;20.58;52.59;100128.16;5038097;28;20040;-55
2022/08/11 06:28:21;;;;;;;3.55;2.00;;;;;;;20.51;52.60;100133.06;4989275;28;20040;-60
2022/08/11 06:30:47;;;;;;;2.50;2.05;;;;;;;20.55;52.77;100134.91;5050822;28;20493;-61
2022/08/11 06:33:32;;;;;;;3.92;2.10;;;;;;;20.70;53.56;100139.34;5068129;28;20106;-59
2022/08/11 06:36:20;;;;;;;4.05;2.53;;;;;;;20.81;52.66;100135.44;5043040;28;20048;-60
2022/08/11 06:38:51;;;;;;;1.80;1.70;;;;;;;20.84;50.71;100128.69;5027975;28;20063;-60
2022/08/11 06:41:34;;;;;;;3.92;2.15;;;;;;;20.85;50.90;100136.50;5067501;28;20095;-59
2022/08/11 06:44:10;;;;;;;2.05;1.88;;;;;;;20.84;50.87;100136.78;5038466;28;20124;-59
2022/08/11 06:46:42;;;;;;;4.75;2.13;;;;;;;20.81;50.99;100132.75;5048453;28;20414;-59
2022/08/11 06:51:10;;;;;;;3.88;2.17;;;;;;;20.82;51.02;100147.84;5064631;28;20114;-61
2022/08/11 06:52:00;;;;;;;2.63;1.70;;;;;;;20.93;50.16;100145.03;5048447;28;20190;-60
2022/08/11 06:54:28;;;;;;;2.20;2.00;;;;;;;20.94;50.60;100138.53;5049197;28;20037;-60
2022/08/11 07:02:45;;;;;;;2.05;1.70;;;;;;;21.06;50.38;100138.91;5063764;28;20063;-60
2022/08/11 07:05:42;;;;;;;2.60;1.60;;;;;;;21.08;49.31;100147.53;5072318;28;20451;-59
2022/08/11 07:17:16;;;;;;;2.28;1.80;;;;;;;21.05;49.11;100138.13;5039896;28;20049;-60
2022/08/11 07:31:12;;;;;;;2.28;1.60;;;;;;;21.45;47.60;100127.94;5055778;28;20045;-59
2022/08/11 07:33:49;;;;;;;2.55;2.10;;;;;;;21.45;47.06;100133.34;5018882;28;20059;-60
2022/08/11 07:36:16;;;;;;;3.78;2.30;;;;;;;21.50;47.00;100132.44;5049885;28;20045;-57
2022/08/11 07:38:50;;;;;;;2.50;2.28;;;;;;;21.49;47.10;100136.25;5040967;28;20044;-59
2022/08/11 07:41:18;;;;;;;2.60;2.40;;;;;;;21.43;46.98;100127.41;5020869;28;20041;-59
2022/08/11 07:43:49;;;;;;;2.13;1.92;;;;;;;21.48;47.49;100137.34;5068986;28;20044;-59
2022/08/11 07:54:32;;;;;;;4.10;2.20;;;;;;;21.80;47.21;100125.00;5072048;28;20316;-60
2022/08/11 07:56:58;;;;;;;2.28;1.70;;;;;;;21.91;46.33;100126.44;5054214;28;20058;-58
2022/08/11 08:18:39;;;;;;;1.95;1.83;;;;;;;21.91;45.55;100126.44;5055308;28;20036;-59
2022/08/11 08:21:11;;;;;;;2.63;2.30;;;;;;;21.98;45.13;100119.56;5020669;28;20051;-59
2022/08/11 08:23:43;;;;;;;3.33;2.00;;;;;;;22.09;45.07;100116.69;5071156;28;20132;-59
2022/08/11 08:31:47;;;;;;;2.72;2.40;;;;;;;22.17;43.53;100110.63;5070691;28;20511;-59
2022/08/11 08:34:14;;;;;;;2.58;1.90;;;;;;;22.14;43.04;100113.91;5053497;28;20044;-60
2022/08/11 08:36:49;;;;;;;4.25;2.17;;;;;;;22.20;42.95;100108.13;5070163;28;20044;-58
2022/08/11 08:39:20;;;;;;;2.47;2.28;;;;;;;22.22;43.33;100107.84;5069671;28;20082;-60
2022/08/11 08:41:50;;;;;;;3.38;2.08;;;;;;;22.41;43.53;100105.06;5053379;28;20045;-60
2022/08/11 08:44:16;;;;;;;3.92;2.00;;;;;;;22.62;43.07;100108.22;5053111;28;20316;-60
2022/08/11 08:46:44;;;;;;;2.20;1.88;;;;;;;22.65;43.20;100107.59;5052676;28;20134;-59
2022/08/11 08:49:15;;;;;;;2.75;2.05;;;;;;;22.60;42.21;100105.00;5070137;28;20052;-59
2022/08/11 08:51:42;;;;;;;3.22;2.00;;;;;;;22.48;42.92;100107.41;5052878;28;20053;-59
2022/08/11 08:54:17;;;;;;;2.20;1.98;;;;;;;22.49;40.69;100106.28;5052625;28;20062;-60
2022/08/11 08:56:44;;;;;;;2.90;1.80;;;;;;;22.60;40.49;100113.09;5052094;28;20059;-59
2022/08/11 08:59:12;;;;;;;5.30;2.00;;;;;;;22.76;40.11;100124.41;5051204;28;20493;-60
2022/08/11 09:01:54;;;;;;;69.78;10.40;;;;;;;22.86;39.87;100108.78;5069949;28;20136;-60
2022/08/11 09:04:21;;;;;;;12.02;3.45;;;;;;;23.04;41.14;100117.13;5053254;28;20044;-58
2022/08/11 09:06:47;;;;;;;5.45;2.20;;;;;;;22.99;41.43;100115.31;5071289;28;20040;-62
2022/08/11 09:09:13;;;;;;;2.72;1.95;;;;;;;23.12;41.07;100116.41;5035815;28;20036;-60
2022/08/11 09:11:50;;;;;;;3.95;2.20;;;;;;;23.23;41.08;100116.97;5070026;28;20083;-59
2022/08/11 09:14:17;;;;;;;2.40;2.20;;;;;;;23.19;40.99;100108.69;5071274;28;20044;-59
2022/08/11 09:16:43;;;;;;;3.95;2.30;;;;;;;23.20;40.44;100102.16;5053165;28;20414;-59
2022/08/11 09:19:09;;;;;;;3.28;2.10;;;;;;;23.23;40.58;100103.44;5070490;28;20039;-59
2022/08/11 09:21:39;;;;;;;3.85;2.33;;;;;;;23.25;40.50;100098.53;5070571;28;20048;-58
2022/08/11 09:27:01;;;;;;;2.28;2.00;;;;;;;23.18;40.77;100098.16;5069126;28;20048;-59
2022/08/11 09:29:28;;;;;;;2.20;2.00;;;;;;;23.14;40.68;100106.06;5054352;28;20481;-59
2022/08/11 09:31:55;;;;;;;3.67;2.00;;;;;;;23.09;39.43;100114.31;5070977;28;20052;-60
2022/08/11 09:34:21;;;;;;;3.05;2.13;;;;;;;23.02;39.75;100101.19;5051956;28;20043;-63
2022/08/11 09:42:21;;;;;;;2.80;2.15;;;;;;;22.70;41.33;100096.69;5054104;28;20056;-59
2022/08/11 09:44:48;;;;;;;3.78;2.20;;;;;;;22.85;41.13;100100.97;5068512;28;20101;-60
2022/08/11 09:47:22;;;;;;;2.47;2.28;;;;;;;22.99;40.71;100104.50;5051632;28;20048;-60
2022/08/11 09:49:48;;;;;;;3.22;2.13;;;;;;;23.15;40.55;100099.56;5068936;28;20052;-59
2022/08/11 09:52:14;;;;;;;2.60;2.20;;;;;;;23.28;40.32;100103.34;5069696;28;20440;-60
2022/08/11 09:54:43;;;;;;;4.40;2.15;;;;;;;23.38;40.28;100102.31;5047911;28;20443;-59
2022/08/11 09:59:53;;;;;;;2.33;2.13;;;;;;;23.33;39.57;100104.03;5045134;28;20044;-60
2022/08/11 10:02:26;;;;;;;3.70;2.03;;;;;;;23.24;40.17;100102.38;5061787;28;20056;-59
2022/08/11 10:07:53;;;;;;;2.88;2.30;;;;;;;23.19;39.52;100102.47;4993901;28;20049;-62
2022/08/11 10:10:21;;;;;;;3.78;2.30;;;;;;;23.26;39.57;100100.94;5041012;28;20032;-60
2022/08/11 10:13:03;;;;;;;2.65;2.45;;;;;;;23.27;39.42;100094.44;5032949;28;20127;-60
2022/08/11 10:15:32;;;;;;;2.83;2.10;;;;;;;23.31;39.55;100095.41;5022676;28;20083;-60
2022/08/11 10:20:53;;;;;;;2.30;2.10;;;;;;;23.67;38.81;100088.38;5051430;28;20060;-59
2022/08/11 10:28:48;;;;;;;3.58;2.40;;;;;;;24.00;38.05;100078.09;5048092;28;20040;-60
2022/08/11 10:34:04;;;;;;;3.80;2.35;;;;;;;24.02;36.98;100073.97;5035999;28;20059;-61
2022/08/11 10:36:41;;;;;;;4.03;2.10;;;;;;;24.06;37.35;100074.19;5062435;28;20465;-61
2022/08/11 10:39:08;;;;;;;3.20;2.00;;;;;;;24.15;37.20;100071.47;5074703;28;20401;-61
2022/08/11 10:44:19;;;;;;;5.75;2.50;;;;;;;24.24;36.66;100067.72;5052789;28;20502;-59
2022/08/11 10:49:30;;;;;;;4.28;2.47;;;;;;;24.25;36.94;100063.09;5064504;28;20398;-59
2022/08/11 11:00:14;;;;;;;2.45;2.25;;;;;;;24.23;36.69;100060.69;5056358;28;20506;-60
2022/08/11 11:02:43;;;;;;;2.58;2.20;;;;;;;24.13;37.00;100058.25;5073135;28;20508;-59
2022/08/11 11:05:11;;;;;;;3.80;2.53;;;;;;;24.14;36.96;100053.66;5019351;28;20044;-61
2022/08/11 11:07:52;;;;;;;1.90;1.80;;;;;;;24.09;37.24;100051.06;5057147;28;20132;-61
2022/08/11 11:10:18;;;;;;;5.03;2.50;;;;;;;24.05;37.04;100050.09;5071090;28;20044;-60
2022/08/11 11:18:20;;;;;;;4.85;2.05;;;;;;;24.09;36.26;100051.06;5072340;28;20040;-60
2022/08/11 11:20:59;;;;;;;3.33;2.22;;;;;;;24.10;36.19;100039.13;5073927;28;20048;-61
2022/08/11 11:23:49;;;;;;;3.37;2.20;;;;;;;24.09;36.70;100046.47;5068980;28;20049;-61
2022/08/11 11:26:49;;;;;;;2.55;2.35;;;;;;;24.07;36.57;100045.19;5048560;28;20143;-60
2022/08/11 11:29:39;;;;;;;2.88;2.10;;;;;;;23.94;36.93;100038.72;5054177;28;20076;-61
2022/08/11 11:32:45;;;;;;;2.30;2.10;;;;;;;23.99;36.37;100036.69;5067070;28;20449;-61
2022/08/11 11:35:36;;;;;;;3.78;2.08;;;;;;;24.03;36.11;100037.69;5066718;28;20045;-61
2022/08/11 11:38:02;;;;;;;3.58;2.10;;;;;;;23.85;36.50;100024.34;5066704;28;20091;-61
2022/08/11 11:40:27;;;;;;;4.05;2.45;;;;;;;23.74;36.60;100029.25;5034488;28;20056;-62
2022/08/11 11:42:55;;;;;;;2.55;2.20;;;;;;;23.62;36.19;100035.19;5050962;28;20082;-60
2022/08/11 11:45:24;;;;;;;3.97;2.20;;;;;;;23.67;36.36;100039.66;5049177;28;20087;-60
2022/08/11 11:47:52;;;;;;;3.00;2.10;;;;;;;23.67;36.51;100031.53;5051725;28;20124;-60
2022/08/11 11:50:43;;;;;;;3.25;2.10;;;;;;;23.66;36.58;100024.53;5053526;28;20059;-60
2022/08/11 11:53:11;;;;;;;2.33;2.00;;;;;;;23.61;36.58;100028.16;5051073;28;20418;-60
2022/08/11 11:55:36;;;;;;;2.80;2.40;;;;;;;23.52;37.17;100033.50;5069271;28;20102;-58
2022/08/11 12:03:34;;;;;;;3.58;2.33;;;;;;;23.49;37.14;100026.00;5020341;28;20126;-61
2022/08/11 12:06:01;;;;;;;4.28;2.50;;;;;;;23.61;36.81;100024.66;5035364;28;20036;-58
2022/08/11 12:08:27;;;;;;;3.25;2.30;;;;;;;23.71;36.46;100024.44;5072427;28;20075;-60
2022/08/11 12:13:52;;;;;;;3.28;2.28;;;;;;;23.86;36.71;100024.06;5058617;28;20071;-61
2022/08/11 12:16:20;;;;;;;2.70;2.50;;;;;;;23.93;35.85;100020.88;5053117;28;20418;-59
2022/08/11 12:18:49;;;;;;;2.30;2.10;;;;;;;23.97;35.83;100021.84;5067914;28;20048;-60
2022/08/11 12:21:15;;;;;;;3.85;2.22;;;;;;;24.04;35.06;100016.81;5034920;28;20079;-59
2022/08/11 12:29:12;;;;;;;2.03;1.83;;;;;;;23.78;35.61;100017.47;5035086;28;20099;-60
2022/08/11 12:31:40;;;;;;;3.47;2.40;;;;;;;23.82;35.68;100019.56;5042145;28;20079;-60
2022/08/11 12:34:09;;;;;;;3.97;2.25;;;;;;;23.86;35.25;100015.13;5053337;28;20047;-60
2022/08/11 12:36:36;;;;;;;5.13;2.60;;;;;;;23.79;35.04;100019.06;5071775;28;20044;-61
2022/08/11 12:39:08;;;;;;;4.10;2.33;;;;;;;23.74;35.25;100018.41;5051034;28;20524;-59
2022/08/11 12:47:10;;;;;;;3.80;2.28;;;;;;;23.68;35.61;100009.59;5039706;28;20391;-60
2022/08/11 12:52:27;;;;;;;2.60;2.40;;;;;;;23.58;35.33;100007.91;5017553;28;20183;-60
2022/08/11 12:54:57;;;;;;;5.25;2.40;;;;;;;23.59;35.78;100003.34;5055622;28;20072;-60
2022/08/11 13:06:00;;;;;;;3.67;2.50;;;;;;;23.68;35.69;100012.31;5052980;28;20056;-61
2022/08/11 13:08:28;;;;;;;2.72;2.50;;;;;;;23.70;35.73;100009.28;5068641;28;20044;-60
2022/08/11 13:13:43;;;;;;;3.88;2.60;;;;;;;23.74;35.87;100015.72;5054558;28;20044;-62
2022/08/11 13:16:09;;;;;;;2.50;2.20;;;;;;;23.73;35.66;100009.47;5040310;28;20064;-60
2022/08/11 13:18:36;;;;;;;4.72;2.30;;;;;;;23.70;35.64;100012.78;5050527;28;20041;-60
2022/08/11 13:21:02;;;;;;;2.63;2.42;;;;;;;23.65;35.70;100003.97;5050325;28;20078;-60
2022/08/11 13:23:28;;;;;;;2.25;2.05;;;;;;;23.63;35.75;100008.91;5049831;28;20552;-58
2022/08/11 13:25:56;;;;;;;3.60;2.50;;;;;;;23.63;35.48;100006.22;5032221;28;20037;-61
2022/08/11 13:28:22;;;;;;;2.30;2.10;;;;;;;23.62;35.32;100001.88;4996127;28;20077;-59
2022/08/11 13:33:35;;;;;;;4.38;2.45;;;;;;;23.58;35.75;99993.59;5011529;28;20125;-60
2022/08/11 13:36:02;;;;;;;4.03;2.42;;;;;;;23.55;36.08;99997.72;5049890;28;20335;-59
2022/08/11 13:38:28;;;;;;;3.95;2.40;;;;;;;23.53;36.19;99994.53;5069797;28;20036;-60
2022/08/11 13:40:55;;;;;;;3.47;2.83;;;;;;;23.49;36.12;99996.25;5052237;28;20198;-60
2022/08/11 13:43:21;;;;;;;2.42;2.22;;;;;;;23.47;36.48;99990.38;5068641;28;20045;-60
2022/08/11 13:45:48;;;;;;;2.78;2.58;;;;;;;23.47;36.13;99992.25;5034312;28;20167;-60
2022/08/11 13:48:15;;;;;;;2.58;2.30;;;;;;;23.47;36.39;99994.94;5032521;28;20067;-60
2022/08/11 13:53:26;;;;;;;4.60;2.40;;;;;;;23.42;36.25;99986.97;5016132;28;20072;-60
2022/08/11 13:55:53;;;;;;;4.57;2.40;;;;;;;23.41;36.41;99978.03;5014040;28;20049;-61
2022/08/11 13:58:21;;;;;;;3.88;2.22;;;;;;;23.40;36.02;99986.47;5029186;28;20072;-61
2022/08/11 14:00:49;;;;;;;2.67;2.35;;;;;;;23.38;35.75;99985.97;5029354;28;20107;-60
2022/08/11 14:03:18;;;;;;;3.03;2.50;;;;;;;23.33;36.04;99982.31;5031305;28;20063;-59
2022/08/11 14:09:58;;;;;;;3.88;2.20;;;;;;;23.29;35.96;99969.69;5029067;28;20060;-59
2022/08/11 14:15:18;;;;;;;2.70;2.50;;;;;;;23.26;36.04;99964.91;5031202;28;20068;-60
2022/08/11 14:17:48;;;;;;;3.08;2.35;;;;;;;23.25;36.10;99960.59;5031457;28;20053;-60
2022/08/11 14:20:16;;;;;;;2.45;2.25;;;;;;;23.22;36.42;99964.72;5030820;28;20065;-61
2022/08/11 14:22:45;;;;;;;4.97;2.53;;;;;;;23.25;36.29;99960.59;5013004;28;20048;-60
2022/08/11 14:25:14;;;;;;;4.55;2.60;;;;;;;23.23;36.65;99960.09;5030669;28;20045;-60
2022/08/11 14:27:40;;;;;;;2.20;2.00;;;;;;;23.23;37.16;99962.81;5029828;28;20049;-61
2022/08/11 14:30:53;;;;;;;2.65;2.33;;;;;;;23.20;37.44;99958.81;5012767;28;20065;-62
2022/08/11 14:32:53;;;;;;;3.30;2.38;;;;;;;23.18;36.81;99955.63;5030907;28;20396;-61
2022/08/11 14:35:19;;;;;;;3.22;2.42;;;;;;;23.15;36.88;99950.03;5029080;28;20071;-59
2022/08/11 14:37:45;;;;;;;7.38;2.60;;;;;;;23.15;36.65;99941.91;5029636;28;20052;-60
2022/08/11 14:47:03;;;;;;;4.22;2.25;;;;;;;23.13;37.14;99950.34;5027615;28;20057;-63
2022/08/11 14:48:27;;;;;;;3.67;3.05;;;;;;;23.08;37.05;99951.25;5009535;28;20414;-59
2022/08/11 14:50:55;;;;;;;2.65;2.13;;;;;;;23.03;37.67;99948.69;5008675;28;20049;-57
2022/08/11 14:53:24;;;;;;;4.85;2.42;;;;;;;23.01;37.88;99945.47;4959173;28;20042;-60
2022/08/11 14:58:35;;;;;;;3.42;2.20;;;;;;;22.95;37.62;99949.41;5008495;28;20045;-60
2022/08/11 15:03:05;;;;;;;3.67;2.63;;;;;;;22.93;37.75;99942.69;4974955;28;20129;-61
2022/08/11 15:03:51;;;;;;;4.75;2.83;;;;;;;22.90;37.73;99944.88;5008598;28;20052;-59
2022/08/11 15:06:17;;;;;;;3.33;2.30;;;;;;;22.88;37.92;99939.00;5008266;28;20053;-62
2022/08/11 15:08:55;;;;;;;2.65;2.30;;;;;;;22.86;37.74;99938.50;5008458;28;20053;-60
2022/08/11 15:17:06;;;;;;;2.65;2.10;;;;;;;22.80;37.93;99941.63;4993027;28;20074;-60
2022/08/11 15:17:07;;;;;;;2.50;2.30;;;;;;;22.76;37.29;99940.63;4994365;28;20045;-59
2022/08/11 15:19:33;;;;;;;3.72;2.00;;;;;;;22.74;37.84;99946.34;4992279;28;20042;-60
2022/08/11 15:24:44;;;;;;;4.25;2.55;;;;;;;22.68;38.11;99945.66;4997882;28;20073;-59
2022/08/11 15:38:18;;;;;;;2.63;2.20;;;;;;;22.58;38.61;99942.38;5012117;28;20104;-60
2022/08/11 15:46:42;;;;;;;2.63;2.30;;;;;;;22.44;39.58;99943.22;5011063;28;20038;-59
2022/08/11 15:49:12;;;;;;;2.38;2.10;;;;;;;22.40;39.71;99936.00;5000075;28;20066;-59
2022/08/11 15:51:43;;;;;;;3.20;2.28;;;;;;;22.36;40.12;99935.03;5015031;28;20403;-60
2022/08/11 15:54:14;;;;;;;3.90;2.20;;;;;;;22.34;39.41;99939.91;5030641;28;20046;-61
2022/08/11 15:56:43;;;;;;;2.60;2.40;;;;;;;22.32;39.37;99934.00;5030368;28;20048;-59
2022/08/11 16:04:43;;;;;;;2.60;2.40;;;;;;;22.19;40.10;99935.63;5031284;28;20041;-60
2022/08/11 16:07:11;;;;;;;4.70;2.70;;;;;;;22.19;40.45;99935.63;5031600;28;20083;-61
2022/08/11 16:09:52;;;;;;;3.30;2.20;;;;;;;22.13;40.71;99928.72;5014491;28;20071;-59
2022/08/11 16:12:22;;;;;;;2.72;2.28;;;;;;;22.10;41.13;99923.91;5026744;28;20402;-62
2022/08/11 16:17:43;;;;;;;5.75;3.75;;;;;;;22.00;41.42;99917.63;5035232;28;20053;-60
2022/08/11 16:20:11;;;;;;;11.10;6.75;;;;;;;21.95;41.43;99928.50;5034175;28;20110;-57
2022/08/11 16:22:46;;;;;;;4.35;2.80;;;;;;;21.88;41.60;99924.59;5017958;28;20049;-58
2022/08/11 16:25:17;;;;;;;4.72;2.67;;;;;;;21.81;41.87;99930.41;5033747;28;20040;-59
2022/08/11 16:27:49;;;;;;;2.90;2.55;;;;;;;21.77;41.62;99929.41;5013550;28;20052;-59
2022/08/11 16:30:16;;;;;;;2.83;2.10;;;;;;;21.75;41.33;99931.59;5032289;28;20520;-59
2022/08/11 16:32:44;;;;;;;3.97;2.40;;;;;;;21.74;41.57;99925.41;5033855;28;20380;-58
2022/08/11 16:40:46;;;;;;;4.32;2.95;;;;;;;21.59;42.13;99931.09;5011439;28;20076;-61
2022/08/11 16:48:48;;;;;;;4.57;2.90;;;;;;;21.30;43.59;99934.78;5019494;28;20841;-60